Time;durP1;ratioP1;P1;durP2;ratioP2;P2;SDS_P1;SDS_P2;PMS_P1;PMS_P2;Temp;Humidity;BMP_temperature;BMP_pressure;BME280_temperature;BME280_humidity;BME280_pressure;Samples;Min_cycle;Max_cycle;Signal;HPM_P1;HPM_P2
2023/07/24 00:00:40;;;;;;;9.70;6.63;;;21.10;1.00;;;;;;5054434;28;20660;-69
2023/07/24 00:03:05;;;;;;;7.90;6.97;;;21.10;1.00;;;;;;5054057;28;20174;-71
2023/07/24 00:05:31;;;;;;;8.47;6.90;;;21.00;1.00;;;;;;5054397;28;20937;-69
2023/07/24 00:07:56;;;;;;;6.93;6.23;;;21.00;1.00;;;;;;5054084;28;20355;-69
2023/07/24 00:10:22;;;;;;;6.40;5.80;;;20.90;1.00;;;;;;5054223;28;20181;-69
2023/07/24 00:12:48;;;;;;;11.60;8.17;;;20.80;1.00;;;;;;5053847;28;20271;-69
2023/07/24 00:15:13;;;;;;;7.97;6.40;;;20.80;1.00;;;;;;5053126;28;20183;-69
2023/07/24 00:17:39;;;;;;;9.60;7.73;;;20.70;1.00;;;;;;5054036;28;20557;-69
2023/07/24 00:20:05;;;;;;;11.43;6.60;;;20.60;1.00;;;;;;5052793;28;20186;-69
2023/07/24 00:22:31;;;;;;;9.30;5.07;;;20.60;1.00;;;;;;5053897;28;20594;-69
2023/07/24 00:24:56;;;;;;;10.60;6.40;;;20.50;1.00;;;;;;5054040;28;20429;-69
2023/07/24 00:27:22;;;;;;;8.63;7.20;;;20.30;1.00;;;;;;5053722;28;20221;-69
2023/07/24 00:29:48;;;;;;;8.47;6.33;;;20.20;1.00;;;;;;5053992;28;20181;-69
2023/07/24 00:32:13;;;;;;;9.93;6.80;;;20.10;1.00;;;;;;5053575;28;20182;-68
2023/07/24 00:34:39;;;;;;;7.30;6.50;;;19.90;1.00;;;;;;5054170;28;20253;-68
2023/07/24 00:37:05;;;;;;;9.80;7.00;;;19.80;1.00;;;;;;5054215;28;20183;-68
2023/07/24 00:39:30;;;;;;;11.37;6.60;;;19.80;1.00;;;;;;5053715;28;20568;-68
2023/07/24 00:41:56;;;;;;;8.10;5.97;;;19.70;1.00;;;;;;5053352;28;20214;-68
2023/07/24 00:44:21;;;;;;;8.17;6.43;;;19.60;1.00;;;;;;5054031;28;20183;-68
2023/07/24 00:46:47;;;;;;;14.50;7.33;;;19.50;1.00;;;;;;5053595;28;20614;-68
2023/07/24 00:49:13;;;;;;;10.10;6.93;;;19.40;1.00;;;;;;5052460;28;20202;-68
2023/07/24 00:51:39;;;;;;;8.17;6.13;;;19.40;1.00;;;;;;5053292;28;20175;-68
2023/07/24 00:54:07;;;;;;;9.83;7.50;;;19.30;1.00;;;;;;5053593;28;20432;-68
2023/07/24 00:56:33;;;;;;;8.17;6.90;;;19.40;1.00;;;;;;5052253;28;20425;-68
2023/07/24 00:59:00;;;;;;;7.37;6.30;;;19.40;1.00;;;;;;5053333;28;20876;-68
2023/07/24 01:01:26;;;;;;;9.00;6.80;;;19.40;1.00;;;;;;5053477;28;20511;-68
2023/07/24 01:03:52;;;;;;;8.17;7.10;;;19.40;1.00;;;;;;5053234;28;20416;-68
2023/07/24 01:06:18;;;;;;;8.13;5.50;;;19.40;1.00;;;;;;5053129;28;20517;-68
2023/07/24 01:08:44;;;;;;;10.40;7.37;;;19.30;1.00;;;;;;5053101;28;20203;-68
2023/07/24 01:11:19;;;;;;;10.93;7.53;;;19.20;1.00;;;;;;5053515;28;20821;-69
2023/07/24 01:14:04;;;;;;;7.40;6.07;;;19.20;1.00;;;;;;5052889;28;20213;-69
2023/07/24 01:16:36;;;;;;;9.80;6.87;;;19.10;1.00;;;;;;5052963;28;20419;-68
2023/07/24 01:19:04;;;;;;;9.10;7.10;;;19.10;1.00;;;;;;5052884;28;20452;-68
2023/07/24 01:21:44;;;;;;;13.93;7.60;;;19.10;1.00;;;;;;5052623;28;20425;-68
2023/07/24 01:24:29;;;;;;;11.70;8.53;;;19.10;1.00;;;;;;5052827;28;20515;-68
2023/07/24 01:26:55;;;;;;;11.87;7.47;;;19.00;1.00;;;;;;5052759;28;20484;-68
2023/07/24 01:29:20;;;;;;;10.03;7.10;;;19.00;1.00;;;;;;5052650;28;21043;-68
2023/07/24 01:31:46;;;;;;;7.33;6.30;;;18.90;1.00;;;;;;5052431;28;20183;-68
2023/07/24 01:34:11;;;;;;;11.27;6.13;;;18.90;1.00;;;;;;5052721;28;20178;-68
2023/07/24 01:36:37;;;;;;;11.53;7.23;;;18.90;1.00;;;;;;5052682;28;20182;-68
2023/07/24 01:39:03;;;;;;;8.37;6.47;;;18.90;1.00;;;;;;5052562;28;20260;-68
2023/07/24 01:41:29;;;;;;;8.83;6.60;;;18.80;1.00;;;;;;5052280;28;20179;-68
2023/07/24 01:43:54;;;;;;;9.50;6.30;;;18.80;1.00;;;;;;5052794;28;20573;-68
2023/07/24 01:46:20;;;;;;;9.47;7.27;;;18.80;1.00;;;;;;5053000;28;20226;-68
2023/07/24 01:48:46;;;;;;;8.00;5.63;;;18.80;1.00;;;;;;5052828;28;20191;-68
2023/07/24 01:51:11;;;;;;;9.80;6.63;;;18.90;1.00;;;;;;5052565;28;20182;-68
2023/07/24 01:53:37;;;;;;;10.23;6.83;;;18.90;1.00;;;;;;5052181;28;20409;-68
2023/07/24 01:56:03;;;;;;;10.27;7.43;;;18.90;1.00;;;;;;5052326;28;20219;-68
2023/07/24 01:58:28;;;;;;;9.47;6.73;;;18.90;1.00;;;;;;5051877;28;20213;-68
2023/07/24 02:00:57;;;;;;;9.57;5.27;;;18.90;1.10;;;;;;5052231;28;20221;-68
2023/07/24 02:03:22;;;;;;;8.40;6.20;;;18.80;1.20;;;;;;5051835;28;20171;-68
2023/07/24 02:05:51;;;;;;;9.03;6.40;;;18.80;1.50;;;;;;5052109;28;20415;-68
2023/07/24 02:08:17;;;;;;;6.27;4.80;;;18.70;1.70;;;;;;5051579;28;20202;-69
2023/07/24 02:10:43;;;;;;;9.20;6.10;;;18.60;2.00;;;;;;5052030;28;20437;-68
2023/07/24 02:13:09;;;;;;;8.17;6.43;;;18.50;2.10;;;;;;5051728;28;20460;-68
2023/07/24 02:15:34;;;;;;;6.03;5.23;;;18.50;2.40;;;;;;5051938;28;20171;-68
2023/07/24 02:18:00;;;;;;;11.63;7.97;;;18.40;2.60;;;;;;5051762;28;20498;-68
2023/07/24 02:20:26;;;;;;;6.60;5.43;;;18.40;3.20;;;;;;5051870;28;20555;-68
2023/07/24 02:22:51;;;;;;;9.00;6.17;;;18.30;3.10;;;;;;5051588;28;20178;-68
2023/07/24 02:25:17;;;;;;;7.47;5.90;;;18.30;3.40;;;;;;5051814;28;20179;-68
2023/07/24 02:27:42;;;;;;;8.57;5.77;;;18.20;3.80;;;;;;5051724;28;20289;-68
2023/07/24 02:30:08;;;;;;;9.50;6.30;;;18.20;3.90;;;;;;5051760;28;20201;-68
2023/07/24 02:32:34;;;;;;;10.33;6.23;;;18.10;4.20;;;;;;5051403;28;20698;-68
2023/07/24 02:34:59;;;;;;;9.53;6.73;;;18.10;4.50;;;;;;5051774;28;20459;-68
2023/07/24 02:37:25;;;;;;;8.03;6.80;;;18.10;4.50;;;;;;5051793;28;20240;-68
2023/07/24 02:39:52;;;;;;;10.33;5.70;;;18.10;4.30;;;;;;5051650;28;20257;-68
2023/07/24 02:42:18;;;;;;;7.67;6.13;;;18.00;4.90;;;;;;5050149;28;20225;-68
2023/07/24 02:44:43;;;;;;;9.13;5.57;;;17.90;5.00;;;;;;5051665;28;20421;-68
2023/07/24 02:47:09;;;;;;;9.13;6.10;;;17.90;5.70;;;;;;5051495;28;20202;-68
2023/07/24 02:49:35;;;;;;;6.90;5.73;;;17.80;6.10;;;;;;5051517;28;20233;-68
2023/07/24 02:52:00;;;;;;;11.80;7.50;;;17.70;6.00;;;;;;5051320;28;20202;-68
2023/07/24 02:54:27;;;;;;;8.03;6.57;;;17.70;6.00;;;;;;5051487;28;20177;-68
2023/07/24 02:56:52;;;;;;;11.13;6.90;;;17.80;6.10;;;;;;5050232;28;20269;-68
2023/07/24 02:59:18;;;;;;;8.70;6.40;;;17.70;6.00;;;;;;5051382;28;20524;-68
2023/07/24 03:01:43;;;;;;;10.77;6.33;;;17.70;6.00;;;;;;5051543;28;20171;-69
2023/07/24 03:04:09;;;;;;;9.50;7.03;;;17.80;6.10;;;;;;5051512;28;20171;-68
2023/07/24 03:06:34;;;;;;;10.77;6.03;;;17.90;5.30;;;;;;5051349;28;20527;-68
2023/07/24 03:09:00;;;;;;;10.70;6.57;;;17.80;5.90;;;;;;5051298;28;20261;-68
2023/07/24 03:11:26;;;;;;;8.10;5.77;;;17.80;5.50;;;;;;5051286;28;20182;-69
2023/07/24 03:13:51;;;;;;;7.43;6.23;;;17.80;5.40;;;;;;5051292;28;20421;-68
2023/07/24 03:16:19;;;;;;;8.87;5.97;;;17.90;5.20;;;;;;5051164;28;20170;-68
2023/07/24 03:18:44;;;;;;;8.63;6.53;;;17.90;5.50;;;;;;5051231;28;20194;-69
2023/07/24 03:21:10;;;;;;;9.80;6.60;;;17.90;5.30;;;;;;5054820;28;20409;-68
2023/07/24 03:23:36;;;;;;;8.20;6.67;;;17.90;5.70;;;;;;5054823;28;20258;-68
2023/07/24 03:26:01;;;;;;;12.17;7.10;;;18.00;5.50;;;;;;5055168;28;20221;-68
2023/07/24 03:28:27;;;;;;;10.80;6.10;;;18.00;5.60;;;;;;5055060;28;20203;-68
2023/07/24 03:30:53;;;;;;;8.83;6.20;;;18.00;5.60;;;;;;5054060;28;20171;-69
2023/07/24 03:33:18;;;;;;;13.43;6.77;;;18.00;5.90;;;;;;5054738;28;20600;-68
2023/07/24 03:35:44;;;;;;;11.90;7.40;;;18.00;5.60;;;;;;5054891;28;20537;-68
2023/07/24 03:38:09;;;;;;;9.83;6.30;;;18.00;5.60;;;;;;5054773;28;20221;-68
2023/07/24 03:40:35;;;;;;;9.97;6.93;;;18.00;6.00;;;;;;5054882;28;20171;-69
2023/07/24 03:43:00;;;;;;;11.70;7.60;;;18.00;6.10;;;;;;5054525;28;20636;-68
2023/07/24 03:45:26;;;;;;;8.40;6.53;;;18.00;6.20;;;;;;5054722;28;20656;-68
2023/07/24 03:47:51;;;;;;;9.67;6.97;;;18.10;6.30;;;;;;5054590;28;20263;-69
2023/07/24 03:50:17;;;;;;;11.27;7.60;;;18.10;6.30;;;;;;5054613;28;20170;-68
2023/07/24 03:52:42;;;;;;;11.70;7.07;;;18.20;6.30;;;;;;5054203;28;20207;-68
2023/07/24 03:55:09;;;;;;;10.20;7.00;;;18.30;6.40;;;;;;5054600;28;20170;-69
2023/07/24 03:57:34;;;;;;;9.37;7.27;;;18.40;6.40;;;;;;5054283;28;20236;-68
2023/07/24 04:00:00;;;;;;;6.73;5.60;;;18.50;5.60;;;;;;5054440;28;20488;-68
2023/07/24 04:02:25;;;;;;;9.40;6.77;;;18.60;5.10;;;;;;5052873;28;20183;-68
2023/07/24 04:04:51;;;;;;;9.60;6.47;;;18.70;5.20;;;;;;5054364;28;20236;-68
2023/07/24 04:07:16;;;;;;;9.87;6.63;;;18.90;4.90;;;;;;5054177;28;20199;-68
2023/07/24 04:09:42;;;;;;;8.00;6.13;;;18.90;4.70;;;;;;5054206;28;20273;-69
2023/07/24 04:12:08;;;;;;;8.40;6.87;;;19.00;4.60;;;;;;5054071;28;20179;-68
2023/07/24 04:14:33;;;;;;;10.97;7.53;;;19.10;4.60;;;;;;5054121;28;20175;-68
2023/07/24 04:16:59;;;;;;;8.60;6.60;;;19.20;4.40;;;;;;5052931;28;20190;-69
2023/07/24 04:19:25;;;;;;;8.10;6.30;;;19.30;4.10;;;;;;5054080;28;20229;-69
2023/07/24 04:21:50;;;;;;;8.47;6.07;;;19.50;3.70;;;;;;5053775;28;20675;-69
2023/07/24 04:24:16;;;;;;;6.80;5.70;;;19.60;3.10;;;;;;5053905;28;20186;-69
2023/07/24 04:26:42;;;;;;;8.33;6.00;;;19.70;3.30;;;;;;5053937;28;20206;-69
2023/07/24 04:29:07;;;;;;;9.43;7.07;;;19.80;2.80;;;;;;5053953;28;20197;-68
2023/07/24 04:31:33;;;;;;;8.17;6.53;;;19.90;2.60;;;;;;5053722;28;20967;-70
2023/07/24 04:33:59;;;;;;;10.20;7.30;;;20.10;2.50;;;;;;5054319;28;20171;-70
2023/07/24 04:36:24;;;;;;;10.10;7.57;;;20.10;2.10;;;;;;5054639;28;20194;-71
2023/07/24 04:38:50;;;;;;;7.17;5.60;;;20.30;1.70;;;;;;5054242;28;20191;-67
2023/07/24 04:41:15;;;;;;;8.70;7.07;;;20.40;1.00;;;;;;5054034;28;20181;-69
2023/07/24 04:43:41;;;;;;;10.63;6.60;;;20.50;1.20;;;;;;5053825;28;20196;-69
2023/07/24 04:46:09;;;;;;;10.10;7.57;;;20.50;1.00;;;;;;5053695;28;20530;-69
2023/07/24 04:48:35;;;;;;;10.60;7.50;;;20.50;1.00;;;;;;5053384;28;20206;-69
2023/07/24 04:51:00;;;;;;;9.20;7.40;;;20.60;1.00;;;;;;5053493;28;20772;-69
2023/07/24 04:53:26;;;;;;;9.60;7.23;;;20.70;1.00;;;;;;5053212;28;20179;-71
2023/07/24 04:55:51;;;;;;;7.80;6.30;;;20.90;1.00;;;;;;5053410;28;20179;-70
2023/07/24 04:58:17;;;;;;;8.13;6.53;;;21.10;1.00;;;;;;5053212;28;20210;-71
2023/07/24 05:00:42;;;;;;;9.33;6.10;;;21.20;1.00;;;;;;5053453;28;20178;-71
2023/07/24 05:03:11;;;;;;;7.60;5.77;;;21.30;1.00;;;;;;5053068;28;20190;-70
2023/07/24 05:05:37;;;;;;;7.03;6.10;;;21.40;1.00;;;;;;5053088;28;20635;-70
2023/07/24 05:08:03;;;;;;;8.50;6.80;;;21.60;1.00;;;;;;5052989;28;20838;-71
2023/07/24 05:10:28;;;;;;;10.93;7.10;;;21.50;1.00;;;;;;5053135;28;20428;-71
2023/07/24 05:12:56;;;;;;;9.00;7.50;;;21.50;1.00;;;;;;5052722;28;20416;-70
2023/07/24 05:15:22;;;;;;;9.40;6.57;;;21.70;1.00;;;;;;5053081;28;20166;-70
2023/07/24 05:17:47;;;;;;;11.77;6.47;;;21.80;1.00;;;;;;5052756;28;20443;-70
2023/07/24 05:20:16;;;;;;;8.13;6.63;;;22.20;1.00;;;;;;5052997;28;20186;-70
2023/07/24 05:22:41;;;;;;;9.93;7.40;;;22.30;1.00;;;;;;5052631;28;20240;-70
2023/07/24 05:25:07;;;;;;;11.00;8.40;;;22.60;1.00;;;;;;5052784;28;20417;-70
2023/07/24 05:27:33;;;;;;;10.13;6.97;;;22.90;1.00;;;;;;5052470;28;20198;-70
2023/07/24 05:29:58;;;;;;;16.10;8.53;;;23.20;1.00;;;;;;5052715;28;20785;-69
2023/07/24 05:32:24;;;;;;;10.10;7.13;;;23.40;1.00;;;;;;5052534;28;20293;-70
2023/07/24 05:34:49;;;;;;;8.80;7.33;;;23.70;1.00;;;;;;5052536;28;20166;-71
2023/07/24 05:37:15;;;;;;;10.97;7.37;;;23.90;1.00;;;;;;5052470;28;20182;-70
2023/07/24 05:39:41;;;;;;;11.27;7.80;;;23.50;1.00;;;;;;5052391;28;20454;-70
2023/07/24 05:42:06;;;;;;;7.40;6.70;;;23.10;1.00;;;;;;5051538;28;20683;-70
2023/07/24 05:44:33;;;;;;;10.87;7.57;;;22.50;1.00;;;;;;5052406;28;20179;-69
2023/07/24 05:46:58;;;;;;;10.30;8.17;;;22.20;1.00;;;;;;5052420;28;20198;-70
2023/07/24 05:49:24;;;;;;;12.43;8.30;;;21.80;1.00;;;;;;5052260;28;20456;-71
2023/07/24 05:51:49;;;;;;;9.63;7.20;;;21.80;1.00;;;;;;5052404;28;20194;-71
2023/07/24 05:54:17;;;;;;;10.87;7.90;;;21.50;1.00;;;;;;5052326;28;20652;-71
2023/07/24 05:56:43;;;;;;;10.53;7.40;;;21.30;1.00;;;;;;5052080;28;20648;-71
2023/07/24 05:59:08;;;;;;;14.40;9.43;;;21.20;1.00;;;;;;5051986;28;20477;-71
2023/07/24 06:01:34;;;;;;;10.73;7.97;;;20.90;1.00;;;;;;5051822;28;20232;-71
2023/07/24 06:03:59;;;;;;;9.80;5.97;;;20.90;1.00;;;;;;5052214;28;20174;-71
2023/07/24 06:06:25;;;;;;;7.80;6.63;;;20.70;1.00;;;;;;5050652;28;20305;-69
2023/07/24 06:08:51;;;;;;;11.13;7.93;;;20.60;1.00;;;;;;5047107;28;20533;-71
2023/07/24 06:11:16;;;;;;;10.07;8.07;;;20.70;1.00;;;;;;5040417;28;20432;-72
2023/07/24 06:13:42;;;;;;;12.40;8.53;;;20.50;1.00;;;;;;5032066;28;20672;-72
2023/07/24 06:16:08;;;;;;;12.40;7.67;;;20.50;1.00;;;;;;5034540;28;20244;-71
2023/07/24 06:18:34;;;;;;;12.33;8.50;;;20.60;1.00;;;;;;5030364;28;20507;-70
2023/07/24 06:20:59;;;;;;;11.40;6.23;;;20.60;1.00;;;;;;5044540;28;20205;-71
2023/07/24 06:23:25;;;;;;;9.77;7.60;;;20.60;1.00;;;;;;5055076;28;20672;-70
2023/07/24 06:25:51;;;;;;;9.07;7.00;;;20.60;1.00;;;;;;5062160;28;20189;-74
2023/07/24 06:28:17;;;;;;;7.83;6.33;;;20.70;1.00;;;;;;5071556;28;20315;-70
2023/07/24 06:30:42;;;;;;;8.97;6.63;;;20.60;1.00;;;;;;5071662;28;20881;-70
2023/07/24 06:33:08;;;;;;;10.90;6.80;;;20.50;1.00;;;;;;5053667;28;20308;-70
2023/07/24 06:35:33;;;;;;;10.37;5.43;;;20.50;1.00;;;;;;5047088;28;20190;-69
2023/07/24 06:37:59;;;;;;;14.03;7.67;;;20.60;1.30;;;;;;5047683;28;20202;-70
2023/07/24 06:40:25;;;;;;;16.73;8.40;;;20.50;1.50;;;;;;5047219;28;20190;-71
2023/07/24 06:42:50;;;;;;;11.37;8.73;;;20.70;1.00;;;;;;5050730;28;20573;-72
2023/07/24 06:45:16;;;;;;;8.77;6.97;;;20.80;1.00;;;;;;5063176;28;20189;-72
2023/07/24 06:47:41;;;;;;;9.90;8.00;;;21.00;1.00;;;;;;5066773;28;20216;-72
2023/07/24 06:50:07;;;;;;;8.90;8.03;;;21.10;1.00;;;;;;5047549;28;20277;-71
2023/07/24 06:52:33;;;;;;;11.43;8.13;;;21.30;1.00;;;;;;5047650;28;20209;-72
2023/07/24 06:54:59;;;;;;;11.40;8.00;;;21.50;1.00;;;;;;5048901;28;20417;-72
2023/07/24 06:57:24;;;;;;;9.23;7.57;;;21.70;1.00;;;;;;5051004;28;20178;-72
2023/07/24 06:59:50;;;;;;;11.00;8.37;;;21.90;1.00;;;;;;5051791;28;20439;-71
2023/07/24 07:02:16;;;;;;;18.30;10.70;;;22.10;1.00;;;;;;5050824;28;20186;-70
2023/07/24 07:04:41;;;;;;;9.50;6.93;;;22.30;1.00;;;;;;5049788;28;20197;-71
2023/07/24 07:07:07;;;;;;;13.57;8.07;;;22.30;1.00;;;;;;5046796;28;20199;-71
2023/07/24 07:09:32;;;;;;;11.43;8.23;;;22.30;1.00;;;;;;5042439;28;20213;-72
2023/07/24 07:11:58;;;;;;;12.87;8.77;;;22.50;1.00;;;;;;5031865;28;20703;-70
2023/07/24 07:14:24;;;;;;;10.30;8.20;;;22.80;1.00;;;;;;5044423;28;20183;-70
2023/07/24 07:16:50;;;;;;;8.20;7.23;;;23.00;1.00;;;;;;5050807;28;20188;-70
2023/07/24 07:19:15;;;;;;;11.03;8.10;;;23.20;1.00;;;;;;4996601;28;20458;-70
2023/07/24 07:21:41;;;;;;;11.83;8.57;;;23.50;1.00;;;;;;4991613;28;20678;-72
2023/07/24 07:24:06;;;;;;;8.87;7.97;;;23.90;1.00;;;;;;4991621;28;20300;-71
2023/07/24 07:26:33;;;;;;;10.63;7.67;;;24.50;1.00;;;;;;4990573;28;20200;-71
2023/07/24 07:28:58;;;;;;;10.03;9.00;;;25.80;1.00;;;;;;4990024;28;20224;-72
2023/07/24 07:31:24;;;;;;;12.73;9.07;;;27.70;1.00;;;;;;4991208;28;20465;-71
2023/07/24 07:33:52;;;;;;;10.20;9.20;;;28.90;1.00;;;;;;4991839;28;20180;-71
2023/07/24 07:36:18;;;;;;;11.47;8.97;;;29.70;1.00;;;;;;4991278;28;20189;-71
2023/07/24 07:38:44;;;;;;;11.70;8.33;;;30.10;1.00;;;;;;4991103;28;20808;-70
2023/07/24 07:41:09;;;;;;;14.83;8.57;;;30.80;1.00;;;;;;4991711;28;20554;-70
2023/07/24 07:43:36;;;;;;;9.13;8.23;;;31.70;1.00;;;;;;4990158;28;20184;-70
2023/07/24 07:46:02;;;;;;;11.43;8.30;;;31.00;1.00;;;;;;4975009;28;20181;-70
2023/07/24 07:48:28;;;;;;;9.30;8.50;;;31.10;1.00;;;;;;4991394;28;20467;-70
2023/07/24 07:50:53;;;;;;;11.10;9.60;;;30.90;1.00;;;;;;4991236;28;20434;-70
2023/07/24 07:53:19;;;;;;;14.70;7.47;;;30.30;1.00;;;;;;4990465;28;20192;-70
2023/07/24 07:55:45;;;;;;;11.53;7.47;;;29.70;1.00;;;;;;4991341;28;20872;-69
2023/07/24 07:58:10;;;;;;;9.30;7.83;;;29.10;1.00;;;;;;4990967;28;20249;-71
2023/07/24 08:00:38;;;;;;;8.60;7.77;;;28.50;1.00;;;;;;4991088;28;20204;-71
2023/07/24 08:03:03;;;;;;;7.50;6.47;;;27.80;1.00;;;;;;4991227;28;20196;-71
2023/07/24 08:05:29;;;;;;;8.93;6.90;;;26.90;1.00;;;;;;4990900;28;20439;-72
2023/07/24 08:07:54;;;;;;;9.10;7.47;;;26.20;1.00;;;;;;4990990;28;20606;-72
2023/07/24 08:10:20;;;;;;;7.50;6.00;;;25.30;1.00;;;;;;4991425;28;20185;-72
2023/07/24 08:12:45;;;;;;;9.40;6.90;;;24.90;1.00;;;;;;4990243;28;20394;-71
2023/07/24 08:15:11;;;;;;;6.07;5.00;;;24.60;1.00;;;;;;4974465;28;20199;-71
2023/07/24 08:17:37;;;;;;;11.47;6.80;;;24.80;1.00;;;;;;4971783;28;20568;-70
2023/07/24 08:20:06;;;;;;;8.63;6.30;;;24.80;1.00;;;;;;4971087;28;20193;-70
2023/07/24 08:22:31;;;;;;;6.67;6.00;;;25.30;1.00;;;;;;4970352;28;20512;-71
2023/07/24 08:24:57;;;;;;;6.10;5.60;;;26.00;1.00;;;;;;4971464;28;20879;-72
2023/07/24 08:27:23;;;;;;;10.50;6.97;;;25.90;1.00;;;;;;4976656;28;20212;-72
2023/07/24 08:29:51;;;;;;;8.43;6.80;;;25.70;1.00;;;;;;4990191;28;20247;-72
2023/07/24 08:32:17;;;;;;;8.27;5.70;;;24.90;1.00;;;;;;4982844;28;20189;-71
2023/07/24 08:34:43;;;;;;;7.20;6.50;;;24.40;1.00;;;;;;4972187;28;20456;-72
2023/07/24 08:37:08;;;;;;;6.23;5.63;;;24.20;1.00;;;;;;4974662;28;20193;-73
2023/07/24 08:39:34;;;;;;;5.63;5.13;;;24.30;1.00;;;;;;4990517;28;20263;-72
2023/07/24 08:41:59;;;;;;;5.93;4.90;;;24.60;1.00;;;;;;4983959;28;20180;-72
2023/07/24 08:44:28;;;;;;;8.23;5.63;;;24.70;1.00;;;;;;4989882;28;20188;-72
2023/07/24 08:46:54;;;;;;;7.70;6.10;;;25.00;1.00;;;;;;4990519;28;20205;-72
2023/07/24 08:49:20;;;;;;;10.83;6.30;;;25.20;1.00;;;;;;4984323;28;20483;-72
2023/07/24 08:51:47;;;;;;;5.73;5.13;;;25.00;1.00;;;;;;4980351;28;20424;-72
2023/07/24 08:54:13;;;;;;;7.87;5.60;;;25.00;1.00;;;;;;4988892;28;20435;-72
2023/07/24 08:56:41;;;;;;;8.70;6.10;;;24.80;1.00;;;;;;4990095;28;20435;-72
2023/07/24 08:59:07;;;;;;;7.57;5.37;;;24.60;1.00;;;;;;4988852;28;20525;-73
2023/07/24 09:01:33;;;;;;;7.43;6.73;;;24.90;1.00;;;;;;4990031;28;20511;-71
2023/07/24 09:03:58;;;;;;;7.87;5.37;;;24.90;1.00;;;;;;4990345;28;20192;-72
2023/07/24 09:06:26;;;;;;;9.03;5.27;;;24.60;1.00;;;;;;4989653;28;20430;-72
2023/07/24 09:08:54;;;;;;;7.17;5.50;;;24.50;1.00;;;;;;4989507;28;20686;-72
2023/07/24 09:11:19;;;;;;;5.10;4.60;;;24.70;1.00;;;;;;4989176;28;20436;-72
2023/07/24 09:13:45;;;;;;;7.20;5.20;;;24.90;1.00;;;;;;4989446;28;20438;-72
2023/07/24 09:16:24;;;;;;;7.30;4.00;;;24.80;1.00;;;;;;4989541;28;20199;-72
2023/07/24 09:18:53;;;;;;;5.70;5.00;;;24.60;1.00;;;;;;4987203;28;20275;-72
2023/07/24 09:21:32;;;;;;;6.20;5.60;;;24.70;1.00;;;;;;4989913;28;20427;-72
2023/07/24 09:24:08;;;;;;;9.43;5.10;;;24.80;1.00;;;;;;4989747;28;20503;-72
2023/07/24 09:26:33;;;;;;;8.80;5.50;;;25.00;1.00;;;;;;4992778;28;20503;-72
2023/07/24 09:28:59;;;;;;;6.10;5.50;;;24.90;1.00;;;;;;4974271;28;20452;-72
2023/07/24 09:31:35;;;;;;;7.37;5.60;;;25.00;1.00;;;;;;4974185;28;20260;-73
2023/07/24 09:34:02;;;;;;;6.83;5.60;;;25.20;1.00;;;;;;4972657;28;20177;-73
2023/07/24 09:36:38;;;;;;;9.50;6.07;;;25.10;1.00;;;;;;4973504;28;20475;-73
2023/07/24 09:39:06;;;;;;;6.83;5.10;;;25.00;1.00;;;;;;4975108;28;20444;-73
2023/07/24 09:41:31;;;;;;;7.40;4.77;;;24.60;1.00;;;;;;4990719;28;20485;-72
2023/07/24 09:44:00;;;;;;;6.57;5.80;;;24.40;1.00;;;;;;4992911;28;20455;-72
2023/07/24 09:46:27;;;;;;;8.30;4.57;;;24.30;1.00;;;;;;4992651;28;20554;-72
2023/07/24 09:48:55;;;;;;;8.83;5.93;;;24.20;1.00;;;;;;4994322;28;20926;-73
2023/07/24 09:51:21;;;;;;;4.90;4.40;;;24.20;1.00;;;;;;4995438;28;20957;-72
2023/07/24 09:53:58;;;;;;;9.70;6.00;;;24.30;1.00;;;;;;4993006;28;20446;-71
2023/07/24 09:56:25;;;;;;;8.23;5.20;;;24.30;1.00;;;;;;4992721;28;20243;-71
2023/07/24 09:58:55;;;;;;;6.53;5.67;;;24.30;1.00;;;;;;4988064;28;20459;-72
2023/07/24 10:01:21;;;;;;;8.17;6.40;;;24.30;1.00;;;;;;4979408;28;20417;-72
2023/07/24 10:03:48;;;;;;;7.40;3.87;;;24.10;1.00;;;;;;4973541;28;20452;-71
2023/07/24 10:06:18;;;;;;;6.47;4.70;;;24.00;1.00;;;;;;4992775;28;20424;-71
2023/07/24 10:08:44;;;;;;;7.00;5.67;;;24.00;1.00;;;;;;4992526;28;20463;-71
2023/07/24 10:11:12;;;;;;;6.40;5.03;;;24.00;1.00;;;;;;4992577;28;20415;-71
2023/07/24 10:13:38;;;;;;;8.67;5.50;;;23.90;1.00;;;;;;4992374;28;20469;-71
2023/07/24 10:16:06;;;;;;;10.23;5.93;;;23.80;2.20;;;;;;4991288;28;20475;-71
2023/07/24 10:18:34;;;;;;;9.63;5.70;;;23.50;3.60;;;;;;4971932;28;20444;-71
2023/07/24 10:21:08;;;;;;;10.20;6.60;;;23.10;5.10;;;;;;4973089;28;20560;-71
2023/07/24 10:23:35;;;;;;;6.90;5.47;;;22.80;9.50;;;;;;4988098;28;20427;-71
2023/07/24 10:26:05;;;;;;;12.27;6.17;;;22.30;11.20;;;;;;4992125;28;20925;-72
2023/07/24 10:28:34;;;;;;;8.90;4.83;;;22.20;11.60;;;;;;4992689;28;20474;-72
2023/07/24 10:31:01;;;;;;;6.80;5.37;;;22.10;14.60;;;;;;4992726;28;20764;-72
2023/07/24 10:33:31;;;;;;;8.83;5.73;;;22.10;15.50;;;;;;4991014;28;20431;-69
2023/07/24 10:36:09;;;;;;;6.80;4.77;;;22.00;15.00;;;;;;4992659;28;20794;-73
2023/07/24 10:38:37;;;;;;;10.40;6.03;;;21.80;16.90;;;;;;4993774;28;20814;-72
2023/07/24 10:41:04;;;;;;;7.13;4.67;;;21.80;17.80;;;;;;4993940;28;20451;-72
2023/07/24 10:43:40;;;;;;;9.97;5.77;;;21.40;17.40;;;;;;4993768;28;20416;-70
2023/07/24 10:46:06;;;;;;;11.50;5.40;;;21.30;19.20;;;;;;4994328;28;20430;-71
2023/07/24 10:48:31;;;;;;;6.90;4.90;;;20.90;17.20;;;;;;4982149;28;20468;-73
2023/07/24 10:50:57;;;;;;;9.77;4.83;;;20.60;17.00;;;;;;4974602;28;20186;-71
2023/07/24 10:53:23;;;;;;;4.67;3.40;;;20.50;21.10;;;;;;4973819;28;20529;-72
2023/07/24 10:55:50;;;;;;;7.17;5.03;;;20.60;21.60;;;;;;4974182;28;20553;-72
2023/07/24 10:58:16;;;;;;;6.17;4.07;;;20.90;20.50;;;;;;4974974;28;20496;-72
2023/07/24 11:00:44;;;;;;;5.63;4.10;;;20.90;17.90;;;;;;4973998;28;20942;-71
2023/07/24 11:03:13;;;;;;;5.60;4.60;;;20.90;17.20;;;;;;4973439;28;20189;-72
2023/07/24 11:05:43;;;;;;;5.80;4.30;;;20.70;18.50;;;;;;4973673;28;20435;-70
2023/07/24 11:08:15;;;;;;;6.87;5.17;;;20.60;18.80;;;;;;4973714;28;20468;-70
2023/07/24 11:10:55;;;;;;;7.30;4.57;;;20.50;19.40;;;;;;4974100;28;20855;-71
2023/07/24 11:13:23;;;;;;;7.20;4.67;;;20.60;19.20;;;;;;4973558;28;20512;-73
2023/07/24 11:15:49;;;;;;;9.63;4.37;;;20.50;19.70;;;;;;4973809;28;20894;-73
2023/07/24 11:18:15;;;;;;;7.50;5.40;;;20.40;21.20;;;;;;4973696;28;20503;-72
2023/07/24 11:20:46;;;;;;;6.90;5.33;;;20.50;20.50;;;;;;4973821;28;20413;-71
2023/07/24 11:23:12;;;;;;;6.97;4.90;;;20.60;19.30;;;;;;4973846;28;20423;-72
2023/07/24 11:25:38;;;;;;;7.17;5.40;;;20.50;17.20;;;;;;4974003;28;20440;-72
2023/07/24 11:28:07;;;;;;;7.77;4.77;;;20.60;20.30;;;;;;4989254;28;20483;-71
2023/07/24 11:30:33;;;;;;;7.90;4.23;;;20.80;20.00;;;;;;4992851;28;20914;-73
2023/07/24 11:33:02;;;;;;;7.10;4.33;;;21.50;17.60;;;;;;4991329;28;20448;-73
2023/07/24 11:35:27;;;;;;;7.07;5.30;;;22.30;15.00;;;;;;4992797;28;20502;-72
2023/07/24 11:37:53;;;;;;;10.30;6.20;;;23.00;11.90;;;;;;4991602;28;20551;-73
2023/07/24 11:40:20;;;;;;;9.60;4.20;;;23.40;12.00;;;;;;4992105;28;20189;-73
2023/07/24 11:42:47;;;;;;;5.20;3.70;;;23.50;10.00;;;;;;4995720;28;20642;-72
2023/07/24 11:45:13;;;;;;;6.97;4.97;;;23.70;10.10;;;;;;4996032;28;20427;-72
2023/07/24 11:47:47;;;;;;;5.50;4.60;;;23.80;8.90;;;;;;4996312;28;20496;-71
2023/07/24 11:50:14;;;;;;;4.00;3.60;;;23.70;9.60;;;;;;4996604;28;20187;-72
2023/07/24 11:52:44;;;;;;;5.23;4.60;;;23.90;6.20;;;;;;4995608;28;20443;-71
2023/07/24 11:55:30;;;;;;;4.87;4.20;;;23.90;4.80;;;;;;4996165;28;20415;-72
2023/07/24 11:58:00;;;;;;;5.43;3.67;;;24.30;5.90;;;;;;4995698;28;20455;-71
2023/07/24 12:00:26;;;;;;;6.50;4.40;;;24.50;5.40;;;;;;4995902;28;20455;-69
2023/07/24 12:02:51;;;;;;;6.57;5.07;;;24.70;3.60;;;;;;4986352;28;20477;-69
2023/07/24 12:05:17;;;;;;;8.67;6.53;;;25.10;3.00;;;;;;4986572;28;20504;-69
2023/07/24 12:07:45;;;;;;;10.77;4.80;;;25.60;2.10;;;;;;4994947;28;20678;-69
2023/07/24 12:10:12;;;;;;;6.50;4.50;;;25.90;2.10;;;;;;4994952;28;20574;-69
2023/07/24 12:12:45;;;;;;;5.10;4.50;;;25.60;2.00;;;;;;4994660;28;20416;-69
2023/07/24 12:15:13;;;;;;;12.27;6.70;;;26.00;1.00;;;;;;4994355;28;20431;-69
2023/07/24 12:17:39;;;;;;;8.10;4.60;;;26.20;1.00;;;;;;4994653;28;20450;-69
2023/07/24 12:20:08;;;;;;;5.70;4.93;;;26.30;1.00;;;;;;4994885;28;20460;-70
2023/07/24 12:22:34;;;;;;;7.43;4.30;;;25.80;1.00;;;;;;4994515;28;20909;-68
2023/07/24 12:25:06;;;;;;;6.00;4.27;;;25.60;1.00;;;;;;4994951;28;20499;-70
2023/07/24 12:27:42;;;;;;;6.90;4.40;;;26.20;1.00;;;;;;4993089;28;20467;-69
2023/07/24 12:30:36;;;;;;;5.87;4.03;;;26.70;1.00;;;;;;4991611;28;20424;-70
2023/07/24 12:33:05;;;;;;;5.47;4.47;;;27.00;1.00;;;;;;4994790;28;20416;-72
2023/07/24 12:35:33;;;;;;;6.90;4.50;;;26.90;1.00;;;;;;4993536;28;20424;-69
2023/07/24 12:38:01;;;;;;;5.73;4.60;;;27.20;1.00;;;;;;4993036;28;20527;-69
2023/07/24 12:40:29;;;;;;;5.37;4.07;;;27.60;1.00;;;;;;4993470;28;20514;-70
2023/07/24 12:42:58;;;;;;;4.33;3.93;;;27.40;1.00;;;;;;4994221;28;21020;-70
2023/07/24 12:45:25;;;;;;;4.57;4.03;;;27.10;1.00;;;;;;4983377;28;20439;-69
2023/07/24 12:48:07;;;;;;;4.40;3.87;;;27.10;1.00;;;;;;4973553;28;20551;-75
2023/07/24 12:51:01;;;;;;;5.67;4.27;;;27.10;1.00;;;;;;4973784;28;20456;-72